sensor_id;sensor_type;location;lat;lon;timestamp;P1;durP1;ratioP1;P2;durP2;ratioP2
75052;SDS011;63630;50.142;14.076;2022-09-27T00:00:29;6.03;;;3.50;;
75052;SDS011;63630;50.142;14.076;2022-09-27T00:02:57;6.25;;;3.70;;
75052;SDS011;63630;50.142;14.076;2022-09-27T00:05:22;7.05;;;3.55;;
75052;SDS011;63630;50.142;14.076;2022-09-27T00:07:48;7.70;;;3.47;;
75052;SDS011;63630;50.142;14.076;2022-09-27T00:10:16;7.80;;;3.42;;
75052;SDS011;63630;50.142;14.076;2022-09-27T00:12:41;7.00;;;3.22;;
75052;SDS011;63630;50.142;14.076;2022-09-27T00:15:10;11.13;;;3.42;;
75052;SDS011;63630;50.142;14.076;2022-09-27T00:17:36;10.07;;;3.42;;
75052;SDS011;63630;50.142;14.076;2022-09-27T00:20:07;10.93;;;2.88;;
75052;SDS011;63630;50.142;14.076;2022-09-27T00:22:33;8.15;;;3.30;;
75052;SDS011;63630;50.142;14.076;2022-09-27T00:24:59;9.30;;;3.05;;
75052;SDS011;63630;50.142;14.076;2022-09-27T00:27:29;8.95;;;3.22;;
75052;SDS011;63630;50.142;14.076;2022-09-27T00:29:55;6.72;;;3.03;;
75052;SDS011;63630;50.142;14.076;2022-09-27T00:32:23;5.55;;;3.08;;
75052;SDS011;63630;50.142;14.076;2022-09-27T00:34:50;10.48;;;3.10;;
75052;SDS011;63630;50.142;14.076;2022-09-27T00:37:15;5.37;;;3.13;;
75052;SDS011;63630;50.142;14.076;2022-09-27T00:39:40;5.20;;;2.93;;
75052;SDS011;63630;50.142;14.076;2022-09-27T00:42:10;6.43;;;2.80;;
75052;SDS011;63630;50.142;14.076;2022-09-27T00:50:00;4.50;;;2.60;;
75052;SDS011;63630;50.142;14.076;2022-09-27T00:52:29;5.15;;;2.83;;
75052;SDS011;63630;50.142;14.076;2022-09-27T00:55:17;5.65;;;2.60;;
75052;SDS011;63630;50.142;14.076;2022-09-27T00:57:47;5.07;;;2.70;;
75052;SDS011;63630;50.142;14.076;2022-09-27T01:00:14;6.10;;;2.60;;
75052;SDS011;63630;50.142;14.076;2022-09-27T01:02:41;4.30;;;2.45;;
75052;SDS011;63630;50.142;14.076;2022-09-27T01:05:12;4.95;;;2.45;;
75052;SDS011;63630;50.142;14.076;2022-09-27T01:07:43;3.83;;;2.60;;
75052;SDS011;63630;50.142;14.076;2022-09-27T01:10:11;4.40;;;2.33;;
75052;SDS011;63630;50.142;14.076;2022-09-27T01:16:17;3.47;;;2.80;;
75052;SDS011;63630;50.142;14.076;2022-09-27T01:24:18;4.03;;;2.50;;
75052;SDS011;63630;50.142;14.076;2022-09-27T01:27:08;4.47;;;2.33;;
75052;SDS011;63630;50.142;14.076;2022-09-27T01:32:51;4.22;;;2.70;;
75052;SDS011;63630;50.142;14.076;2022-09-27T01:38:23;4.40;;;2.45;;
75052;SDS011;63630;50.142;14.076;2022-09-27T01:43:28;5.05;;;2.70;;
75052;SDS011;63630;50.142;14.076;2022-09-27T01:45:59;3.97;;;2.47;;
75052;SDS011;63630;50.142;14.076;2022-09-27T01:48:35;3.17;;;2.30;;
75052;SDS011;63630;50.142;14.076;2022-09-27T01:51:07;5.07;;;2.67;;
75052;SDS011;63630;50.142;14.076;2022-09-27T01:53:37;4.72;;;2.63;;
75052;SDS011;63630;50.142;14.076;2022-09-27T01:56:07;6.53;;;2.70;;
75052;SDS011;63630;50.142;14.076;2022-09-27T01:58:41;7.45;;;2.65;;
75052;SDS011;63630;50.142;14.076;2022-09-27T02:01:13;8.88;;;2.35;;
75052;SDS011;63630;50.142;14.076;2022-09-27T02:03:46;4.55;;;2.20;;
75052;SDS011;63630;50.142;14.076;2022-09-27T02:06:16;10.25;;;2.30;;
75052;SDS011;63630;50.142;14.076;2022-09-27T02:08:51;4.05;;;2.38;;
75052;SDS011;63630;50.142;14.076;2022-09-27T02:11:20;4.50;;;2.30;;
75052;SDS011;63630;50.142;14.076;2022-09-27T02:22:35;4.72;;;2.40;;
75052;SDS011;63630;50.142;14.076;2022-09-27T02:30:18;3.75;;;2.10;;
75052;SDS011;63630;50.142;14.076;2022-09-27T02:32:46;3.80;;;2.00;;
75052;SDS011;63630;50.142;14.076;2022-09-27T02:35:12;4.13;;;2.33;;
75052;SDS011;63630;50.142;14.076;2022-09-27T02:37:43;5.18;;;2.30;;
75052;SDS011;63630;50.142;14.076;2022-09-27T02:40:08;3.83;;;1.70;;
75052;SDS011;63630;50.142;14.076;2022-09-27T02:42:34;3.83;;;2.13;;
75052;SDS011;63630;50.142;14.076;2022-09-27T02:45:00;3.40;;;1.90;;
75052;SDS011;63630;50.142;14.076;2022-09-27T02:50:14;3.22;;;1.92;;
75052;SDS011;63630;50.142;14.076;2022-09-27T02:52:55;5.13;;;2.30;;
75052;SDS011;63630;50.142;14.076;2022-09-27T02:55:41;3.78;;;2.00;;
75052;SDS011;63630;50.142;14.076;2022-09-27T02:58:52;2.97;;;1.90;;
75052;SDS011;63630;50.142;14.076;2022-09-27T03:01:32;4.00;;;2.20;;
75052;SDS011;63630;50.142;14.076;2022-09-27T03:06:39;4.40;;;1.95;;
75052;SDS011;63630;50.142;14.076;2022-09-27T03:09:42;3.40;;;2.20;;
75052;SDS011;63630;50.142;14.076;2022-09-27T03:12:12;4.05;;;2.20;;
75052;SDS011;63630;50.142;14.076;2022-09-27T03:14:44;3.53;;;2.00;;
75052;SDS011;63630;50.142;14.076;2022-09-27T03:17:12;4.95;;;2.00;;
75052;SDS011;63630;50.142;14.076;2022-09-27T03:19:40;3.08;;;1.92;;
75052;SDS011;63630;50.142;14.076;2022-09-27T03:22:07;4.55;;;1.85;;
75052;SDS011;63630;50.142;14.076;2022-09-27T03:24:33;3.38;;;1.80;;
75052;SDS011;63630;50.142;14.076;2022-09-27T03:26:58;3.47;;;1.97;;
75052;SDS011;63630;50.142;14.076;2022-09-27T03:29:27;2.83;;;1.80;;
75052;SDS011;63630;50.142;14.076;2022-09-27T03:31:54;4.40;;;2.10;;
75052;SDS011;63630;50.142;14.076;2022-09-27T03:34:20;3.03;;;1.80;;
75052;SDS011;63630;50.142;14.076;2022-09-27T03:36:48;3.50;;;2.05;;
75052;SDS011;63630;50.142;14.076;2022-09-27T03:39:14;4.60;;;2.20;;
75052;SDS011;63630;50.142;14.076;2022-09-27T03:41:39;4.20;;;2.00;;
75052;SDS011;63630;50.142;14.076;2022-09-27T03:44:05;2.55;;;1.70;;
75052;SDS011;63630;50.142;14.076;2022-09-27T03:46:30;3.38;;;1.83;;
75052;SDS011;63630;50.142;14.076;2022-09-27T03:48:56;3.40;;;1.73;;
75052;SDS011;63630;50.142;14.076;2022-09-27T03:51:21;2.77;;;1.80;;
75052;SDS011;63630;50.142;14.076;2022-09-27T03:53:46;3.87;;;2.23;;
75052;SDS011;63630;50.142;14.076;2022-09-27T03:56:12;3.10;;;1.90;;
75052;SDS011;63630;50.142;14.076;2022-09-27T03:58:37;3.10;;;1.80;;
75052;SDS011;63630;50.142;14.076;2022-09-27T04:01:05;5.32;;;2.22;;
75052;SDS011;63630;50.142;14.076;2022-09-27T04:03:32;2.83;;;1.60;;
75052;SDS011;63630;50.142;14.076;2022-09-27T04:06:00;3.03;;;1.80;;
75052;SDS011;63630;50.142;14.076;2022-09-27T04:08:27;2.42;;;1.63;;
75052;SDS011;63630;50.142;14.076;2022-09-27T04:10:52;4.20;;;1.85;;
75052;SDS011;63630;50.142;14.076;2022-09-27T04:13:20;2.78;;;1.75;;
75052;SDS011;63630;50.142;14.076;2022-09-27T04:15:46;3.53;;;1.95;;
75052;SDS011;63630;50.142;14.076;2022-09-27T04:18:13;8.53;;;1.87;;
75052;SDS011;63630;50.142;14.076;2022-09-27T04:20:39;6.60;;;1.83;;
75052;SDS011;63630;50.142;14.076;2022-09-27T04:23:04;7.38;;;2.50;;
75052;SDS011;63630;50.142;14.076;2022-09-27T04:25:30;7.70;;;2.10;;
75052;SDS011;63630;50.142;14.076;2022-09-27T04:27:59;5.35;;;1.85;;
75052;SDS011;63630;50.142;14.076;2022-09-27T04:30:28;8.18;;;2.20;;
75052;SDS011;63630;50.142;14.076;2022-09-27T04:32:56;5.13;;;2.15;;
75052;SDS011;63630;50.142;14.076;2022-09-27T04:35:22;5.25;;;2.10;;
75052;SDS011;63630;50.142;14.076;2022-09-27T04:38:08;7.80;;;2.03;;
75052;SDS011;63630;50.142;14.076;2022-09-27T04:40:37;5.55;;;2.30;;
75052;SDS011;63630;50.142;14.076;2022-09-27T04:43:02;3.90;;;1.90;;
75052;SDS011;63630;50.142;14.076;2022-09-27T04:45:28;4.13;;;2.05;;
75052;SDS011;63630;50.142;14.076;2022-09-27T04:47:56;4.15;;;2.10;;
75052;SDS011;63630;50.142;14.076;2022-09-27T04:50:24;6.13;;;3.03;;
75052;SDS011;63630;50.142;14.076;2022-09-27T04:52:52;3.85;;;2.28;;
75052;SDS011;63630;50.142;14.076;2022-09-27T04:55:18;4.90;;;1.85;;
75052;SDS011;63630;50.142;14.076;2022-09-27T04:57:47;5.75;;;2.22;;
75052;SDS011;63630;50.142;14.076;2022-09-27T05:00:18;4.53;;;2.00;;
75052;SDS011;63630;50.142;14.076;2022-09-27T05:02:44;8.10;;;2.22;;
75052;SDS011;63630;50.142;14.076;2022-09-27T05:05:12;6.07;;;2.08;;
75052;SDS011;63630;50.142;14.076;2022-09-27T05:07:38;7.60;;;2.10;;
75052;SDS011;63630;50.142;14.076;2022-09-27T05:10:05;4.95;;;1.90;;
75052;SDS011;63630;50.142;14.076;2022-09-27T05:12:31;3.65;;;2.03;;
75052;SDS011;63630;50.142;14.076;2022-09-27T05:14:59;4.13;;;1.77;;
75052;SDS011;63630;50.142;14.076;2022-09-27T05:17:24;4.17;;;2.00;;
75052;SDS011;63630;50.142;14.076;2022-09-27T05:19:50;3.63;;;1.95;;
75052;SDS011;63630;50.142;14.076;2022-09-27T05:22:20;2.95;;;1.63;;
75052;SDS011;63630;50.142;14.076;2022-09-27T05:24:45;2.60;;;1.60;;
75052;SDS011;63630;50.142;14.076;2022-09-27T05:27:13;5.22;;;1.73;;
75052;SDS011;63630;50.142;14.076;2022-09-27T05:29:42;5.50;;;2.30;;
75052;SDS011;63630;50.142;14.076;2022-09-27T05:32:08;4.65;;;1.70;;
75052;SDS011;63630;50.142;14.076;2022-09-27T05:34:33;5.60;;;1.83;;
75052;SDS011;63630;50.142;14.076;2022-09-27T05:37:00;5.13;;;1.85;;
75052;SDS011;63630;50.142;14.076;2022-09-27T05:39:26;4.23;;;2.00;;
75052;SDS011;63630;50.142;14.076;2022-09-27T05:41:53;2.93;;;1.60;;
75052;SDS011;63630;50.142;14.076;2022-09-27T05:44:23;3.92;;;1.60;;
75052;SDS011;63630;50.142;14.076;2022-09-27T05:46:52;2.53;;;1.55;;
75052;SDS011;63630;50.142;14.076;2022-09-27T05:49:19;3.38;;;1.75;;
75052;SDS011;63630;50.142;14.076;2022-09-27T05:51:45;3.73;;;1.80;;
75052;SDS011;63630;50.142;14.076;2022-09-27T05:54:11;2.97;;;1.63;;
75052;SDS011;63630;50.142;14.076;2022-09-27T05:56:39;5.50;;;1.87;;
75052;SDS011;63630;50.142;14.076;2022-09-27T05:59:07;4.25;;;1.58;;
75052;SDS011;63630;50.142;14.076;2022-09-27T06:01:34;3.33;;;1.65;;
75052;SDS011;63630;50.142;14.076;2022-09-27T06:04:02;3.70;;;1.48;;
75052;SDS011;63630;50.142;14.076;2022-09-27T06:06:29;2.72;;;1.60;;
75052;SDS011;63630;50.142;14.076;2022-09-27T06:08:54;2.77;;;1.73;;
75052;SDS011;63630;50.142;14.076;2022-09-27T06:11:20;2.85;;;1.30;;
75052;SDS011;63630;50.142;14.076;2022-09-27T06:13:45;3.10;;;1.80;;
75052;SDS011;63630;50.142;14.076;2022-09-27T06:16:10;2.90;;;1.33;;
75052;SDS011;63630;50.142;14.076;2022-09-27T06:18:36;2.53;;;1.63;;
75052;SDS011;63630;50.142;14.076;2022-09-27T06:21:02;4.53;;;1.65;;
75052;SDS011;63630;50.142;14.076;2022-09-27T06:23:28;7.10;;;2.05;;
75052;SDS011;63630;50.142;14.076;2022-09-27T06:26:06;6.28;;;1.83;;
75052;SDS011;63630;50.142;14.076;2022-09-27T06:28:32;4.65;;;1.70;;
75052;SDS011;63630;50.142;14.076;2022-09-27T06:31:00;5.00;;;1.45;;
75052;SDS011;63630;50.142;14.076;2022-09-27T06:33:26;4.20;;;1.77;;
75052;SDS011;63630;50.142;14.076;2022-09-27T06:35:52;4.43;;;1.75;;
75052;SDS011;63630;50.142;14.076;2022-09-27T06:38:18;6.22;;;1.70;;
75052;SDS011;63630;50.142;14.076;2022-09-27T06:40:45;3.00;;;1.67;;
75052;SDS011;63630;50.142;14.076;2022-09-27T06:43:12;4.78;;;1.80;;
75052;SDS011;63630;50.142;14.076;2022-09-27T06:45:41;5.32;;;1.65;;
75052;SDS011;63630;50.142;14.076;2022-09-27T06:48:08;5.28;;;1.50;;
75052;SDS011;63630;50.142;14.076;2022-09-27T06:50:35;3.72;;;1.58;;
75052;SDS011;63630;50.142;14.076;2022-09-27T06:53:02;2.65;;;1.55;;
75052;SDS011;63630;50.142;14.076;2022-09-27T06:55:33;4.15;;;1.42;;
75052;SDS011;63630;50.142;14.076;2022-09-27T06:58:04;2.53;;;1.63;;
75052;SDS011;63630;50.142;14.076;2022-09-27T07:00:49;3.17;;;1.55;;
75052;SDS011;63630;50.142;14.076;2022-09-27T07:03:15;4.10;;;1.70;;
75052;SDS011;63630;50.142;14.076;2022-09-27T07:05:41;2.75;;;1.35;;
75052;SDS011;63630;50.142;14.076;2022-09-27T07:08:08;3.88;;;1.60;;
75052;SDS011;63630;50.142;14.076;2022-09-27T07:15:46;2.80;;;1.60;;
75052;SDS011;63630;50.142;14.076;2022-09-27T07:18:11;5.35;;;2.72;;
75052;SDS011;63630;50.142;14.076;2022-09-27T07:20:39;3.35;;;1.73;;
75052;SDS011;63630;50.142;14.076;2022-09-27T07:23:05;5.80;;;1.70;;
75052;SDS011;63630;50.142;14.076;2022-09-27T07:25:31;3.63;;;1.80;;
75052;SDS011;63630;50.142;14.076;2022-09-27T07:28:00;5.47;;;1.90;;
75052;SDS011;63630;50.142;14.076;2022-09-27T07:30:27;5.15;;;1.70;;
75052;SDS011;63630;50.142;14.076;2022-09-27T07:32:58;4.68;;;1.77;;
75052;SDS011;63630;50.142;14.076;2022-09-27T07:35:25;3.70;;;1.90;;
75052;SDS011;63630;50.142;14.076;2022-09-27T07:37:52;3.50;;;1.83;;
75052;SDS011;63630;50.142;14.076;2022-09-27T07:40:18;3.10;;;1.63;;
75052;SDS011;63630;50.142;14.076;2022-09-27T07:42:43;6.05;;;1.70;;
75052;SDS011;63630;50.142;14.076;2022-09-27T07:45:14;3.80;;;1.75;;
75052;SDS011;63630;50.142;14.076;2022-09-27T07:47:41;4.40;;;1.63;;
75052;SDS011;63630;50.142;14.076;2022-09-27T07:50:07;3.50;;;1.60;;
75052;SDS011;63630;50.142;14.076;2022-09-27T07:52:42;3.75;;;1.98;;
75052;SDS011;63630;50.142;14.076;2022-09-27T07:55:09;2.67;;;1.70;;
75052;SDS011;63630;50.142;14.076;2022-09-27T07:57:39;3.55;;;1.80;;
75052;SDS011;63630;50.142;14.076;2022-09-27T08:00:08;2.70;;;1.70;;
75052;SDS011;63630;50.142;14.076;2022-09-27T08:02:39;3.42;;;1.65;;
75052;SDS011;63630;50.142;14.076;2022-09-27T08:05:10;3.10;;;1.50;;
75052;SDS011;63630;50.142;14.076;2022-09-27T08:07:36;4.60;;;2.00;;
75052;SDS011;63630;50.142;14.076;2022-09-27T08:10:06;2.50;;;1.90;;
75052;SDS011;63630;50.142;14.076;2022-09-27T08:12:32;3.08;;;1.65;;
75052;SDS011;63630;50.142;14.076;2022-09-27T08:15:00;4.03;;;1.73;;
75052;SDS011;63630;50.142;14.076;2022-09-27T08:17:29;3.80;;;1.70;;
75052;SDS011;63630;50.142;14.076;2022-09-27T08:19:55;2.88;;;1.70;;
75052;SDS011;63630;50.142;14.076;2022-09-27T08:22:20;3.10;;;1.80;;
75052;SDS011;63630;50.142;14.076;2022-09-27T08:24:46;2.30;;;1.48;;
75052;SDS011;63630;50.142;14.076;2022-09-27T08:27:14;2.65;;;1.60;;
75052;SDS011;63630;50.142;14.076;2022-09-27T08:29:41;2.67;;;1.35;;
75052;SDS011;63630;50.142;14.076;2022-09-27T08:32:09;3.20;;;1.60;;
75052;SDS011;63630;50.142;14.076;2022-09-27T08:34:41;2.22;;;1.50;;
75052;SDS011;63630;50.142;14.076;2022-09-27T08:37:08;2.55;;;1.60;;
75052;SDS011;63630;50.142;14.076;2022-09-27T08:39:33;2.67;;;1.42;;
75052;SDS011;63630;50.142;14.076;2022-09-27T08:45:11;3.08;;;1.35;;
75052;SDS011;63630;50.142;14.076;2022-09-27T08:47:55;3.28;;;1.50;;
75052;SDS011;63630;50.142;14.076;2022-09-27T08:50:28;3.03;;;1.77;;
75052;SDS011;63630;50.142;14.076;2022-09-27T08:53:18;2.70;;;1.80;;
75052;SDS011;63630;50.142;14.076;2022-09-27T08:55:51;2.20;;;1.38;;
75052;SDS011;63630;50.142;14.076;2022-09-27T08:58:24;2.80;;;1.50;;
75052;SDS011;63630;50.142;14.076;2022-09-27T09:00:52;2.85;;;1.70;;
75052;SDS011;63630;50.142;14.076;2022-09-27T09:03:21;3.03;;;1.77;;
75052;SDS011;63630;50.142;14.076;2022-09-27T09:15:23;3.35;;;1.60;;
75052;SDS011;63630;50.142;14.076;2022-09-27T09:21:13;2.90;;;1.52;;
75052;SDS011;63630;50.142;14.076;2022-09-27T09:29:52;2.90;;;1.50;;
75052;SDS011;63630;50.142;14.076;2022-09-27T09:35:01;2.33;;;1.23;;
75052;SDS011;63630;50.142;14.076;2022-09-27T09:37:35;5.15;;;1.70;;
75052;SDS011;63630;50.142;14.076;2022-09-27T09:40:21;3.28;;;1.40;;
75052;SDS011;63630;50.142;14.076;2022-09-27T09:45:33;2.50;;;1.50;;
75052;SDS011;63630;50.142;14.076;2022-09-27T09:50:56;2.83;;;1.50;;
75052;SDS011;63630;50.142;14.076;2022-09-27T09:59:00;2.20;;;1.35;;
75052;SDS011;63630;50.142;14.076;2022-09-27T10:01:46;2.08;;;1.17;;
75052;SDS011;63630;50.142;14.076;2022-09-27T10:04:30;2.00;;;1.10;;
75052;SDS011;63630;50.142;14.076;2022-09-27T10:06:58;3.13;;;1.70;;
75052;SDS011;63630;50.142;14.076;2022-09-27T10:09:25;2.97;;;1.50;;
75052;SDS011;63630;50.142;14.076;2022-09-27T10:11:52;2.42;;;1.27;;
75052;SDS011;63630;50.142;14.076;2022-09-27T10:14:18;2.58;;;1.33;;
75052;SDS011;63630;50.142;14.076;2022-09-27T10:16:46;1.88;;;1.20;;
75052;SDS011;63630;50.142;14.076;2022-09-27T10:19:14;2.22;;;1.30;;
75052;SDS011;63630;50.142;14.076;2022-09-27T10:21:50;1.95;;;1.10;;
75052;SDS011;63630;50.142;14.076;2022-09-27T10:24:17;2.75;;;1.52;;
75052;SDS011;63630;50.142;14.076;2022-09-27T10:26:45;2.17;;;1.25;;
75052;SDS011;63630;50.142;14.076;2022-09-27T10:31:44;1.85;;;1.13;;
75052;SDS011;63630;50.142;14.076;2022-09-27T10:39:36;1.80;;;1.02;;
75052;SDS011;63630;50.142;14.076;2022-09-27T10:44:57;2.15;;;1.20;;
75052;SDS011;63630;50.142;14.076;2022-09-27T10:47:25;2.42;;;1.20;;
75052;SDS011;63630;50.142;14.076;2022-09-27T10:49:51;2.10;;;1.10;;
75052;SDS011;63630;50.142;14.076;2022-09-27T10:52:28;2.20;;;1.45;;
75052;SDS011;63630;50.142;14.076;2022-09-27T10:54:55;1.83;;;1.08;;
75052;SDS011;63630;50.142;14.076;2022-09-27T10:57:21;2.00;;;1.17;;
75052;SDS011;63630;50.142;14.076;2022-09-27T10:59:56;2.60;;;1.15;;
75052;SDS011;63630;50.142;14.076;2022-09-27T11:05:43;2.00;;;0.93;;
75052;SDS011;63630;50.142;14.076;2022-09-27T11:07:52;3.10;;;1.20;;
75052;SDS011;63630;50.142;14.076;2022-09-27T11:21:18;3.13;;;0.98;;
75052;SDS011;63630;50.142;14.076;2022-09-27T11:24:01;1.67;;;0.90;;
75052;SDS011;63630;50.142;14.076;2022-09-27T11:27:08;1.33;;;0.73;;
75052;SDS011;63630;50.142;14.076;2022-09-27T11:32:27;1.70;;;0.90;;
75052;SDS011;63630;50.142;14.076;2022-09-27T11:57:12;1.20;;;0.80;;
75052;SDS011;63630;50.142;14.076;2022-09-27T11:59:58;1.15;;;0.80;;
75052;SDS011;63630;50.142;14.076;2022-09-27T12:10:56;1.35;;;0.80;;
75052;SDS011;63630;50.142;14.076;2022-09-27T12:13:37;1.70;;;0.90;;
75052;SDS011;63630;50.142;14.076;2022-09-27T12:16:07;1.55;;;0.68;;
75052;SDS011;63630;50.142;14.076;2022-09-27T12:18:39;1.33;;;0.90;;
75052;SDS011;63630;50.142;14.076;2022-09-27T12:21:08;1.52;;;0.80;;
75052;SDS011;63630;50.142;14.076;2022-09-27T12:23:38;1.80;;;0.77;;
75052;SDS011;63630;50.142;14.076;2022-09-27T12:29:16;3.28;;;0.90;;
75052;SDS011;63630;50.142;14.076;2022-09-27T12:31:48;1.25;;;0.82;;
75052;SDS011;63630;50.142;14.076;2022-09-27T12:36:57;1.35;;;0.73;;
75052;SDS011;63630;50.142;14.076;2022-09-27T12:42:01;1.58;;;0.73;;
75052;SDS011;63630;50.142;14.076;2022-09-27T12:44:35;1.30;;;0.70;;
75052;SDS011;63630;50.142;14.076;2022-09-27T12:52:03;1.40;;;0.70;;
75052;SDS011;63630;50.142;14.076;2022-09-27T12:54:40;1.58;;;0.77;;
75052;SDS011;63630;50.142;14.076;2022-09-27T12:57:17;1.42;;;0.73;;
75052;SDS011;63630;50.142;14.076;2022-09-27T12:59:54;2.53;;;0.65;;
75052;SDS011;63630;50.142;14.076;2022-09-27T13:02:46;1.23;;;0.70;;
75052;SDS011;63630;50.142;14.076;2022-09-27T13:10:58;1.75;;;0.60;;
75052;SDS011;63630;50.142;14.076;2022-09-27T13:13:53;2.25;;;0.80;;
75052;SDS011;63630;50.142;14.076;2022-09-27T13:16:23;1.70;;;0.80;;
75052;SDS011;63630;50.142;14.076;2022-09-27T13:26:54;0.85;;;0.60;;
75052;SDS011;63630;50.142;14.076;2022-09-27T13:29:21;1.17;;;0.70;;
75052;SDS011;63630;50.142;14.076;2022-09-27T13:37:35;1.38;;;0.70;;
75052;SDS011;63630;50.142;14.076;2022-09-27T13:45:23;2.22;;;0.73;;
75052;SDS011;63630;50.142;14.076;2022-09-27T13:47:54;1.00;;;0.60;;
75052;SDS011;63630;50.142;14.076;2022-09-27T13:52:57;1.45;;;0.80;;
75052;SDS011;63630;50.142;14.076;2022-09-27T13:55:47;1.00;;;0.50;;
75052;SDS011;63630;50.142;14.076;2022-09-27T14:00:51;1.15;;;0.63;;
75052;SDS011;63630;50.142;14.076;2022-09-27T14:05:54;1.15;;;0.70;;
75052;SDS011;63630;50.142;14.076;2022-09-27T14:08:31;1.38;;;0.63;;
75052;SDS011;63630;50.142;14.076;2022-09-27T14:13:28;1.13;;;0.70;;
75052;SDS011;63630;50.142;14.076;2022-09-27T14:15:57;2.20;;;0.70;;
75052;SDS011;63630;50.142;14.076;2022-09-27T14:18:26;0.70;;;0.40;;
75052;SDS011;63630;50.142;14.076;2022-09-27T14:20:53;0.65;;;0.50;;
75052;SDS011;63630;50.142;14.076;2022-09-27T14:23:45;1.17;;;0.70;;
75052;SDS011;63630;50.142;14.076;2022-09-27T14:26:18;0.82;;;0.40;;
75052;SDS011;63630;50.142;14.076;2022-09-27T14:28:47;0.70;;;0.50;;
75052;SDS011;63630;50.142;14.076;2022-09-27T14:31:14;0.68;;;0.52;;
75052;SDS011;63630;50.142;14.076;2022-09-27T14:33:42;0.75;;;0.50;;
75052;SDS011;63630;50.142;14.076;2022-09-27T14:39:27;2.20;;;0.70;;
75052;SDS011;63630;50.142;14.076;2022-09-27T14:41:58;2.03;;;1.00;;
75052;SDS011;63630;50.142;14.076;2022-09-27T14:44:23;0.75;;;0.50;;
75052;SDS011;63630;50.142;14.076;2022-09-27T14:47:06;1.20;;;0.65;;
75052;SDS011;63630;50.142;14.076;2022-09-27T14:52:16;1.85;;;0.90;;
75052;SDS011;63630;50.142;14.076;2022-09-27T14:54:53;0.68;;;0.50;;
75052;SDS011;63630;50.142;14.076;2022-09-27T14:57:22;1.17;;;0.45;;
75052;SDS011;63630;50.142;14.076;2022-09-27T14:59:49;0.90;;;0.47;;
75052;SDS011;63630;50.142;14.076;2022-09-27T15:02:17;0.85;;;0.60;;
75052;SDS011;63630;50.142;14.076;2022-09-27T15:04:46;0.77;;;0.60;;
75052;SDS011;63630;50.142;14.076;2022-09-27T15:07:12;1.70;;;0.60;;
75052;SDS011;63630;50.142;14.076;2022-09-27T15:09:41;1.02;;;0.50;;
75052;SDS011;63630;50.142;14.076;2022-09-27T15:12:15;1.33;;;0.60;;
75052;SDS011;63630;50.142;14.076;2022-09-27T15:14:48;1.00;;;0.60;;
75052;SDS011;63630;50.142;14.076;2022-09-27T15:17:18;0.63;;;0.40;;
75052;SDS011;63630;50.142;14.076;2022-09-27T15:19:59;1.17;;;0.60;;
75052;SDS011;63630;50.142;14.076;2022-09-27T15:22:31;1.08;;;0.70;;
75052;SDS011;63630;50.142;14.076;2022-09-27T15:25:14;0.85;;;0.50;;
75052;SDS011;63630;50.142;14.076;2022-09-27T15:27:58;1.02;;;0.55;;
75052;SDS011;63630;50.142;14.076;2022-09-27T15:30:38;0.60;;;0.50;;
75052;SDS011;63630;50.142;14.076;2022-09-27T15:33:05;1.05;;;0.50;;
75052;SDS011;63630;50.142;14.076;2022-09-27T15:36:03;1.20;;;0.60;;
75052;SDS011;63630;50.142;14.076;2022-09-27T15:41:14;0.73;;;0.50;;
75052;SDS011;63630;50.142;14.076;2022-09-27T15:43:45;1.65;;;0.63;;
75052;SDS011;63630;50.142;14.076;2022-09-27T15:48:39;2.97;;;1.15;;
75052;SDS011;63630;50.142;14.076;2022-09-27T15:54:04;0.85;;;0.60;;
75052;SDS011;63630;50.142;14.076;2022-09-27T15:56:30;2.05;;;0.60;;
75052;SDS011;63630;50.142;14.076;2022-09-27T15:58:55;1.27;;;0.50;;
75052;SDS011;63630;50.142;14.076;2022-09-27T16:01:20;0.77;;;0.60;;
75052;SDS011;63630;50.142;14.076;2022-09-27T16:03:46;1.10;;;0.47;;
75052;SDS011;63630;50.142;14.076;2022-09-27T16:06:12;0.98;;;0.60;;
75052;SDS011;63630;50.142;14.076;2022-09-27T16:08:39;1.40;;;0.60;;
75052;SDS011;63630;50.142;14.076;2022-09-27T16:11:04;1.38;;;0.70;;
75052;SDS011;63630;50.142;14.076;2022-09-27T16:13:29;0.63;;;0.50;;
75052;SDS011;63630;50.142;14.076;2022-09-27T16:15:55;0.93;;;0.60;;
75052;SDS011;63630;50.142;14.076;2022-09-27T16:18:25;0.80;;;0.52;;
75052;SDS011;63630;50.142;14.076;2022-09-27T16:20:53;1.73;;;0.60;;
75052;SDS011;63630;50.142;14.076;2022-09-27T16:23:20;1.05;;;0.50;;
75052;SDS011;63630;50.142;14.076;2022-09-27T16:25:48;1.23;;;0.60;;
75052;SDS011;63630;50.142;14.076;2022-09-27T16:28:13;1.65;;;0.80;;
75052;SDS011;63630;50.142;14.076;2022-09-27T16:30:38;2.40;;;0.80;;
75052;SDS011;63630;50.142;14.076;2022-09-27T16:33:04;1.10;;;0.63;;
75052;SDS011;63630;50.142;14.076;2022-09-27T16:35:29;1.30;;;0.70;;
75052;SDS011;63630;50.142;14.076;2022-09-27T16:37:57;1.00;;;0.70;;
75052;SDS011;63630;50.142;14.076;2022-09-27T16:40:24;1.10;;;0.60;;
75052;SDS011;63630;50.142;14.076;2022-09-27T16:42:54;1.15;;;0.57;;
75052;SDS011;63630;50.142;14.076;2022-09-27T16:45:22;1.42;;;0.70;;
75052;SDS011;63630;50.142;14.076;2022-09-27T16:47:49;2.13;;;0.80;;
75052;SDS011;63630;50.142;14.076;2022-09-27T16:50:15;1.40;;;0.70;;
75052;SDS011;63630;50.142;14.076;2022-09-27T16:53:01;1.05;;;0.60;;
75052;SDS011;63630;50.142;14.076;2022-09-27T16:55:30;1.13;;;0.60;;
75052;SDS011;63630;50.142;14.076;2022-09-27T16:58:04;1.67;;;0.77;;
75052;SDS011;63630;50.142;14.076;2022-09-27T17:00:33;2.05;;;0.75;;
75052;SDS011;63630;50.142;14.076;2022-09-27T17:02:59;1.67;;;0.85;;
75052;SDS011;63630;50.142;14.076;2022-09-27T17:05:27;2.28;;;0.90;;
75052;SDS011;63630;50.142;14.076;2022-09-27T17:07:52;1.80;;;0.70;;
75052;SDS011;63630;50.142;14.076;2022-09-27T17:10:21;1.13;;;0.70;;
75052;SDS011;63630;50.142;14.076;2022-09-27T17:12:49;1.30;;;0.75;;
75052;SDS011;63630;50.142;14.076;2022-09-27T17:15:15;1.13;;;0.60;;
75052;SDS011;63630;50.142;14.076;2022-09-27T17:17:41;1.30;;;0.75;;
75052;SDS011;63630;50.142;14.076;2022-09-27T17:20:09;1.48;;;0.75;;
75052;SDS011;63630;50.142;14.076;2022-09-27T17:22:34;1.70;;;0.70;;
75052;SDS011;63630;50.142;14.076;2022-09-27T17:24:59;1.80;;;0.90;;
75052;SDS011;63630;50.142;14.076;2022-09-27T17:27:28;1.90;;;0.80;;
75052;SDS011;63630;50.142;14.076;2022-09-27T17:29:53;1.87;;;1.00;;
75052;SDS011;63630;50.142;14.076;2022-09-27T17:32:19;1.70;;;0.90;;
75052;SDS011;63630;50.142;14.076;2022-09-27T17:34:48;1.65;;;0.82;;
75052;SDS011;63630;50.142;14.076;2022-09-27T17:37:13;1.17;;;0.70;;
75052;SDS011;63630;50.142;14.076;2022-09-27T17:39:41;1.05;;;0.60;;
75052;SDS011;63630;50.142;14.076;2022-09-27T17:42:09;1.98;;;0.90;;
75052;SDS011;63630;50.142;14.076;2022-09-27T17:44:37;1.45;;;0.80;;
75052;SDS011;63630;50.142;14.076;2022-09-27T17:47:05;1.83;;;1.10;;
75052;SDS011;63630;50.142;14.076;2022-09-27T17:49:48;1.67;;;0.80;;
75052;SDS011;63630;50.142;14.076;2022-09-27T17:52:32;1.98;;;1.05;;
75052;SDS011;63630;50.142;14.076;2022-09-27T17:54:58;1.65;;;0.80;;
75052;SDS011;63630;50.142;14.076;2022-09-27T17:57:24;1.65;;;0.73;;
75052;SDS011;63630;50.142;14.076;2022-09-27T17:59:49;1.50;;;0.80;;
75052;SDS011;63630;50.142;14.076;2022-09-27T18:02:15;2.05;;;1.00;;
75052;SDS011;63630;50.142;14.076;2022-09-27T18:04:40;2.42;;;1.10;;
75052;SDS011;63630;50.142;14.076;2022-09-27T18:07:06;1.30;;;0.70;;
75052;SDS011;63630;50.142;14.076;2022-09-27T18:09:32;2.33;;;1.08;;
75052;SDS011;63630;50.142;14.076;2022-09-27T18:12:01;3.40;;;1.40;;